createdAt,value
2023-10-09T00:01:39.781Z,3.50
2023-10-09T00:04:07.029Z,3.78
2023-10-09T00:06:34.297Z,3.20
2023-10-09T00:09:01.577Z,3.60
2023-10-09T00:11:28.666Z,3.05
2023-10-09T00:13:55.729Z,3.58
2023-10-09T00:16:24.053Z,3.65
2023-10-09T00:18:51.859Z,4.20
2023-10-09T00:21:20.011Z,4.18
2023-10-09T00:23:47.743Z,4.22
2023-10-09T00:26:14.876Z,4.13
2023-10-09T00:28:41.914Z,4.05
2023-10-09T00:31:09.076Z,4.60
2023-10-09T00:33:36.290Z,4.07
2023-10-09T00:36:05.015Z,3.97
2023-10-09T00:38:32.083Z,3.28
2023-10-09T00:40:59.178Z,3.65
2023-10-09T00:43:26.351Z,3.93
2023-10-09T00:45:53.511Z,4.15
2023-10-09T00:48:21.170Z,3.65
2023-10-09T00:50:48.373Z,3.97
2023-10-09T00:53:16.491Z,3.58
2023-10-09T00:55:43.807Z,3.87
2023-10-09T00:58:13.924Z,4.07
2023-10-09T01:00:42.506Z,4.32
2023-10-09T01:03:09.733Z,4.03
2023-10-09T01:05:37.003Z,3.40
2023-10-09T01:08:05.099Z,3.67
2023-10-09T01:10:45.897Z,3.75
2023-10-09T01:13:12.962Z,3.75
2023-10-09T01:15:40.094Z,3.88
2023-10-09T01:18:07.366Z,3.33
2023-10-09T01:20:34.622Z,3.73
2023-10-09T01:23:02.741Z,3.60
2023-10-09T01:25:29.816Z,3.60
2023-10-09T01:27:56.870Z,3.40
2023-10-09T01:30:23.987Z,3.75
2023-10-09T01:32:51.244Z,3.57
2023-10-09T01:35:18.379Z,3.70
2023-10-09T01:37:45.448Z,4.20
2023-10-09T01:40:12.733Z,3.97
2023-10-09T01:42:39.835Z,4.00
2023-10-09T01:45:07.527Z,4.83
2023-10-09T01:47:34.764Z,3.38
2023-10-09T01:50:01.865Z,3.78
2023-10-09T01:52:28.938Z,3.70
2023-10-09T01:54:56.056Z,3.92
2023-10-09T01:57:23.247Z,4.17
2023-10-09T01:59:51.893Z,3.35
2023-10-09T02:02:19.056Z,3.75
2023-10-09T02:04:46.169Z,4.30
2023-10-09T02:07:13.209Z,3.53
2023-10-09T02:09:40.561Z,3.20
2023-10-09T02:12:07.748Z,4.13
2023-10-09T02:14:34.812Z,3.92
2023-10-09T02:17:01.903Z,3.80
2023-10-09T02:19:29.517Z,4.45
2023-10-09T02:21:56.686Z,4.20
2023-10-09T02:24:27.708Z,4.47
2023-10-09T02:26:55.053Z,3.78
2023-10-09T02:29:22.185Z,3.08
2023-10-09T02:31:49.343Z,3.65
2023-10-09T02:34:16.526Z,3.63
2023-10-09T02:36:43.756Z,4.18
2023-10-09T02:39:11.419Z,3.60
2023-10-09T02:41:38.482Z,3.85
2023-10-09T02:44:05.612Z,3.00
2023-10-09T02:46:32.731Z,4.13
2023-10-09T02:48:59.842Z,3.65
2023-10-09T02:51:28.336Z,4.18
2023-10-09T02:54:01.189Z,2.75
2023-10-09T02:56:29.362Z,3.03
2023-10-09T02:58:56.516Z,3.40
2023-10-09T03:01:23.725Z,3.50
2023-10-09T03:03:50.922Z,3.53
2023-10-09T03:06:18.041Z,2.75
2023-10-09T03:08:45.178Z,3.72
2023-10-09T03:11:12.286Z,3.37
2023-10-09T03:13:39.313Z,3.53
2023-10-09T03:16:06.489Z,3.95
2023-10-09T03:18:33.543Z,3.92
2023-10-09T03:21:00.677Z,3.45
2023-10-09T03:23:27.830Z,3.70
2023-10-09T03:26:01.442Z,3.53
2023-10-09T03:28:34.321Z,3.90
2023-10-09T03:31:01.454Z,3.47
2023-10-09T03:33:28.620Z,4.10
2023-10-09T03:35:55.747Z,3.67
2023-10-09T03:38:22.834Z,3.78
2023-10-09T03:40:49.883Z,4.05
2023-10-09T03:43:17.032Z,4.22
2023-10-09T03:45:44.114Z,4.25
2023-10-09T03:48:11.271Z,3.93
2023-10-09T03:50:38.965Z,3.60
2023-10-09T03:53:06.632Z,3.33
2023-10-09T03:55:33.891Z,3.38
2023-10-09T03:58:01.171Z,3.85
2023-10-09T04:00:30.617Z,4.27
2023-10-09T04:02:59.207Z,3.83
2023-10-09T04:05:27.711Z,3.80
2023-10-09T04:07:56.568Z,3.70
2023-10-09T04:10:23.627Z,4.22
2023-10-09T04:12:50.732Z,4.20
2023-10-09T04:15:17.844Z,3.28
2023-10-09T04:17:44.999Z,3.60
2023-10-09T04:20:12.260Z,3.75
2023-10-09T04:22:40.670Z,4.35
2023-10-09T04:25:08.127Z,4.60
2023-10-09T04:27:35.365Z,3.97
2023-10-09T04:30:02.480Z,3.78
2023-10-09T04:32:29.560Z,3.97
2023-10-09T04:34:56.664Z,3.90
2023-10-09T04:37:23.776Z,4.00
2023-10-09T04:39:50.864Z,3.90
2023-10-09T04:42:18.386Z,3.65
2023-10-09T04:44:46.294Z,3.03
2023-10-09T04:47:15.584Z,4.88
2023-10-09T04:49:42.997Z,5.00
2023-10-09T04:52:10.069Z,4.38
2023-10-09T04:54:37.208Z,4.50
2023-10-09T04:57:04.505Z,4.93
2023-10-09T04:59:31.626Z,4.35
2023-10-09T05:01:58.740Z,4.00
2023-10-09T05:04:26.774Z,4.15
2023-10-09T05:06:53.947Z,4.63
2023-10-09T05:09:21.019Z,4.30
2023-10-09T05:11:48.194Z,5.38
2023-10-09T05:14:15.257Z,5.23
2023-10-09T05:16:42.605Z,4.78
2023-10-09T05:19:09.711Z,5.45
2023-10-09T05:21:38.240Z,5.47
2023-10-09T05:24:06.442Z,5.55
2023-10-09T05:26:33.578Z,4.97
2023-10-09T05:29:00.657Z,5.30
2023-10-09T05:31:27.761Z,5.47
2023-10-09T05:33:54.888Z,4.55
2023-10-09T05:36:21.981Z,4.60
2023-10-09T05:38:49.067Z,4.67
2023-10-09T05:41:16.177Z,4.03
2023-10-09T05:43:43.242Z,4.45
2023-10-09T05:46:10.354Z,6.28
2023-10-09T05:48:38.033Z,12.65
2023-10-09T05:51:05.275Z,9.33
2023-10-09T05:53:32.386Z,8.13
2023-10-09T05:55:59.457Z,6.60
2023-10-09T05:58:26.519Z,5.20
2023-10-09T06:00:53.658Z,4.82
2023-10-09T06:03:21.291Z,4.40
2023-10-09T06:05:50.237Z,4.25
2023-10-09T06:08:17.286Z,4.28
2023-10-09T06:10:44.422Z,3.88
2023-10-09T06:13:11.541Z,3.42
2023-10-09T06:15:40.612Z,4.33
2023-10-09T06:18:07.833Z,3.78
2023-10-09T06:20:34.943Z,4.00
2023-10-09T06:23:02.713Z,4.60
2023-10-09T06:25:29.810Z,4.43
2023-10-09T06:27:56.848Z,5.30
2023-10-09T06:30:23.958Z,5.10
2023-10-09T06:32:51.443Z,4.20
2023-10-09T06:35:19.262Z,5.35
2023-10-09T06:37:49.340Z,5.20
2023-10-09T06:40:16.475Z,5.30
2023-10-09T06:42:43.585Z,5.25
2023-10-09T06:45:12.349Z,5.18
2023-10-09T06:47:39.513Z,4.85
2023-10-09T06:50:07.158Z,5.20
2023-10-09T06:52:34.261Z,4.40
2023-10-09T06:55:01.381Z,5.63
2023-10-09T06:57:28.456Z,4.53
2023-10-09T06:59:55.516Z,5.18
2023-10-09T07:02:22.618Z,5.70
2023-10-09T07:04:49.742Z,5.37
2023-10-09T07:07:16.858Z,5.25
2023-10-09T07:09:44.356Z,4.40
2023-10-09T07:12:11.779Z,4.88
2023-10-09T07:14:38.881Z,4.47
2023-10-09T07:17:10.532Z,4.27
2023-10-09T07:19:37.670Z,3.85
2023-10-09T07:22:05.076Z,4.43
2023-10-09T07:24:32.827Z,4.55
2023-10-09T07:26:59.889Z,4.25
2023-10-09T07:29:27.023Z,4.43
2023-10-09T07:31:54.131Z,5.32
2023-10-09T07:34:21.199Z,5.38
2023-10-09T07:36:48.319Z,5.90
2023-10-09T07:39:15.551Z,14.23
2023-10-09T07:41:43.164Z,7.10
2023-10-09T07:44:10.211Z,35.33
2023-10-09T07:46:37.312Z,15.32
2023-10-09T07:49:05.926Z,17.33
2023-10-09T07:51:33.082Z,7.28
2023-10-09T07:54:01.538Z,30.07
2023-10-09T07:56:28.669Z,16.50
2023-10-09T07:58:55.744Z,11.02
2023-10-09T08:01:22.888Z,13.52
2023-10-09T08:03:50.847Z,11.77
2023-10-09T08:06:18.017Z,16.33
2023-10-09T08:08:45.197Z,7.57
2023-10-09T08:11:12.321Z,8.85
2023-10-09T08:13:39.395Z,5.72
2023-10-09T08:16:06.735Z,8.02
2023-10-09T08:18:33.855Z,6.40
2023-10-09T08:21:04.019Z,5.05
2023-10-09T08:23:31.114Z,5.20
2023-10-09T08:26:05.478Z,4.57
2023-10-09T08:28:32.589Z,5.35
2023-10-09T08:30:59.674Z,4.23
2023-10-09T08:35:57.641Z,4.68
2023-10-09T08:38:25.235Z,3.72
2023-10-09T08:40:53.289Z,4.00
2023-10-09T08:43:21.445Z,3.70
2023-10-09T08:45:50.427Z,3.35
2023-10-09T08:48:17.682Z,3.78
2023-10-09T08:50:47.037Z,3.28
2023-10-09T08:53:15.212Z,2.97
2023-10-09T08:55:43.113Z,3.53
2023-10-09T08:58:10.583Z,3.63
2023-10-09T09:00:41.265Z,4.30
2023-10-09T09:03:08.451Z,3.90
2023-10-09T09:05:35.595Z,3.60
2023-10-09T09:08:03.163Z,4.00
2023-10-09T09:10:30.934Z,3.60
2023-10-09T09:12:58.197Z,3.72
2023-10-09T09:15:25.407Z,3.67
2023-10-09T09:17:52.640Z,3.13
2023-10-09T09:20:27.431Z,4.03
2023-10-09T09:22:56.129Z,4.38
2023-10-09T09:25:24.408Z,4.07
2023-10-09T09:27:52.099Z,3.47
2023-10-09T09:30:29.818Z,3.70
2023-10-09T09:32:56.972Z,3.70
2023-10-09T09:35:24.048Z,3.47
2023-10-09T09:37:54.965Z,4.22
2023-10-09T09:40:22.460Z,3.42
2023-10-09T09:42:51.912Z,3.65
2023-10-09T09:45:19.111Z,3.73
2023-10-09T09:47:46.472Z,3.95
2023-10-09T09:50:14.443Z,3.78
2023-10-09T09:52:41.669Z,3.67
2023-10-09T09:55:10.861Z,3.80
2023-10-09T09:57:38.638Z,4.67
2023-10-09T10:00:07.469Z,4.05
2023-10-09T10:02:38.905Z,3.55
2023-10-09T10:05:09.496Z,3.38
2023-10-09T10:07:36.940Z,4.15
2023-10-09T10:10:04.289Z,4.03
2023-10-09T10:12:46.751Z,3.67
2023-10-09T10:15:13.986Z,4.32
2023-10-09T10:17:59.638Z,4.30
2023-10-09T10:20:27.359Z,5.00
2023-10-09T10:23:17.377Z,4.33
2023-10-09T10:25:44.908Z,4.05
2023-10-09T10:28:23.599Z,4.40
2023-10-09T10:30:51.072Z,4.03
2023-10-09T10:33:18.148Z,3.95
2023-10-09T10:35:45.289Z,4.37
2023-10-09T10:38:41.828Z,4.43
2023-10-09T10:41:19.750Z,4.22
2023-10-09T10:43:47.781Z,4.20
2023-10-09T10:46:16.202Z,4.38
2023-10-09T10:48:44.522Z,3.93
2023-10-09T10:51:11.805Z,4.78
2023-10-09T10:53:39.020Z,4.32
2023-10-09T10:56:06.236Z,4.40
2023-10-09T10:58:33.450Z,4.00
2023-10-09T11:01:00.610Z,4.13
2023-10-09T11:03:28.248Z,4.25
2023-10-09T11:05:56.101Z,4.45
2023-10-09T11:08:27.441Z,4.80
2023-10-09T11:11:11.106Z,4.20
2023-10-09T11:13:38.357Z,4.67
2023-10-09T11:16:07.234Z,4.75
2023-10-09T11:18:44.197Z,4.45
2023-10-09T11:21:11.512Z,4.05
2023-10-09T11:23:38.697Z,4.20
2023-10-09T11:26:07.585Z,3.83
2023-10-09T11:28:34.920Z,4.00
2023-10-09T11:31:13.255Z,3.97
2023-10-09T11:33:58.572Z,3.55
2023-10-09T11:36:25.692Z,4.70
2023-10-09T11:38:52.746Z,4.47
2023-10-09T11:41:21.230Z,4.20
2023-10-09T11:43:50.087Z,4.18
2023-10-09T11:46:17.184Z,3.80
2023-10-09T11:48:44.234Z,4.18
2023-10-09T11:51:14.350Z,4.57
2023-10-09T11:53:42.828Z,4.20
2023-10-09T11:56:10.472Z,4.13
2023-10-09T11:58:37.595Z,4.22
2023-10-09T12:01:13.257Z,4.30
2023-10-09T12:03:40.496Z,4.87
2023-10-09T12:06:07.638Z,4.78
2023-10-09T12:08:35.358Z,4.70
2023-10-09T12:11:07.533Z,4.85
2023-10-09T12:13:34.866Z,4.75
2023-10-09T12:16:02.089Z,4.07
2023-10-09T12:18:29.265Z,4.50
2023-10-09T12:20:56.343Z,3.47
2023-10-09T12:23:24.276Z,4.22
2023-10-09T12:25:52.269Z,5.15
2023-10-09T12:28:19.456Z,4.10
2023-10-09T12:30:46.546Z,5.10
2023-10-09T12:33:14.008Z,4.90
2023-10-09T12:35:42.741Z,4.70
2023-10-09T12:38:09.877Z,4.15
2023-10-09T12:40:37.950Z,4.30
2023-10-09T12:43:05.724Z,4.55
2023-10-09T12:45:35.536Z,4.28
2023-10-09T12:48:02.748Z,4.53
2023-10-09T12:50:30.951Z,4.72
2023-10-09T12:52:58.890Z,3.60
2023-10-09T12:55:26.214Z,4.00
2023-10-09T12:57:53.265Z,4.63
2023-10-09T13:00:20.391Z,4.25
2023-10-09T13:02:47.533Z,3.72
2023-10-09T13:05:14.693Z,4.80
2023-10-09T13:07:41.811Z,4.90
2023-10-09T13:10:09.371Z,4.43
2023-10-09T13:12:36.649Z,4.57
2023-10-09T13:15:03.942Z,4.45
2023-10-09T13:17:32.577Z,4.73
2023-10-09T13:20:00.555Z,4.47
2023-10-09T13:22:27.606Z,4.60
2023-10-09T13:24:54.684Z,4.40
2023-10-09T13:27:21.757Z,4.60
2023-10-09T13:29:49.209Z,4.93
2023-10-09T13:32:16.483Z,4.30
2023-10-09T13:34:43.642Z,4.18
2023-10-09T13:37:10.710Z,4.30
2023-10-09T13:39:38.133Z,3.65
2023-10-09T13:42:05.302Z,3.80
2023-10-09T13:44:33.370Z,4.18
2023-10-09T13:47:05.613Z,4.30
2023-10-09T13:49:33.420Z,5.10
2023-10-09T13:52:01.745Z,4.43
2023-10-09T13:54:29.431Z,4.63
2023-10-09T13:56:56.727Z,4.90
2023-10-09T13:59:24.395Z,4.43
2023-10-09T14:01:52.599Z,4.60
2023-10-09T14:04:19.677Z,4.15
2023-10-09T14:06:47.514Z,5.23
2023-10-09T14:09:14.854Z,4.20
2023-10-09T14:11:41.926Z,4.90
2023-10-09T14:14:12.010Z,4.38
2023-10-09T14:16:40.043Z,4.70
2023-10-09T14:19:07.125Z,4.63
2023-10-09T14:21:34.938Z,4.80
2023-10-09T14:24:02.048Z,4.78
2023-10-09T14:26:29.835Z,4.60
2023-10-09T14:28:58.221Z,4.50
2023-10-09T14:31:26.604Z,4.67
2023-10-09T14:33:54.660Z,4.45
2023-10-09T14:36:22.201Z,4.20
2023-10-09T14:38:52.978Z,4.68
2023-10-09T14:41:23.742Z,4.70
2023-10-09T14:43:51.922Z,3.90
2023-10-09T14:46:19.715Z,4.18
2023-10-09T14:48:46.781Z,4.32
2023-10-09T14:51:13.846Z,4.53
2023-10-09T14:53:41.226Z,3.95
2023-10-09T14:56:08.309Z,3.80
2023-10-09T14:58:35.643Z,4.00
2023-10-09T15:01:12.360Z,4.03
2023-10-09T15:03:39.819Z,3.90
2023-10-09T15:06:07.002Z,4.45
2023-10-09T15:08:34.085Z,4.20
2023-10-09T15:11:01.203Z,4.25
2023-10-09T15:13:28.285Z,4.97
2023-10-09T15:15:56.631Z,4.28
2023-10-09T15:18:23.887Z,3.85
2023-10-09T15:20:51.119Z,4.70
2023-10-09T15:23:18.760Z,3.70
2023-10-09T15:25:45.898Z,3.80
2023-10-09T15:28:13.396Z,4.03
2023-10-09T15:30:40.532Z,4.30
2023-10-09T15:33:07.876Z,4.57
2023-10-09T15:35:35.430Z,4.22
2023-10-09T15:38:03.317Z,4.75
2023-10-09T15:40:34.388Z,4.47
2023-10-09T15:43:02.070Z,4.65
2023-10-09T15:45:29.200Z,4.67
2023-10-09T15:47:57.431Z,4.57
2023-10-09T15:50:25.572Z,4.25
2023-10-09T15:52:56.401Z,4.35
2023-10-09T15:55:24.318Z,4.63
2023-10-09T15:57:52.381Z,4.30
2023-10-09T16:00:20.201Z,4.45
2023-10-09T16:02:50.541Z,4.68
2023-10-09T16:05:18.065Z,4.88
2023-10-09T16:07:45.699Z,5.15
2023-10-09T16:10:12.826Z,4.43
2023-10-09T16:12:41.593Z,4.70
2023-10-09T16:15:09.273Z,5.20
2023-10-09T16:17:36.912Z,4.47
2023-10-09T16:20:04.519Z,4.05
2023-10-09T16:22:31.654Z,3.80
2023-10-09T16:25:01.292Z,4.28
2023-10-09T16:27:29.061Z,4.13
2023-10-09T16:29:56.161Z,3.65
2023-10-09T16:32:23.227Z,4.07
2023-10-09T16:34:51.018Z,3.90
2023-10-09T16:37:18.590Z,3.72
2023-10-09T16:39:45.764Z,4.15
2023-10-09T16:42:12.838Z,3.65
2023-10-09T16:44:43.001Z,3.95
2023-10-09T16:47:12.407Z,3.87
2023-10-09T16:49:39.883Z,3.30
2023-10-09T16:52:07.097Z,3.92
2023-10-09T16:54:34.139Z,3.78
2023-10-09T16:57:01.195Z,4.20
2023-10-09T16:59:28.494Z,3.73
2023-10-09T17:01:55.635Z,4.85
2023-10-09T17:04:22.808Z,3.90
2023-10-09T17:06:50.131Z,4.07
2023-10-09T17:09:17.239Z,3.95
2023-10-09T17:11:44.273Z,4.67
2023-10-09T17:14:11.408Z,4.20
2023-10-09T17:16:38.487Z,5.07
2023-10-09T17:19:05.592Z,4.28
2023-10-09T17:21:32.775Z,5.20
2023-10-09T17:23:59.832Z,4.93
2023-10-09T17:26:26.961Z,5.15
2023-10-09T17:28:54.066Z,4.43
2023-10-09T17:31:22.130Z,6.03
2023-10-09T17:33:49.565Z,5.82
2023-10-09T17:36:17.237Z,4.30
2023-10-09T17:38:45.129Z,5.00
2023-10-09T17:41:12.274Z,5.60
2023-10-09T17:43:39.451Z,5.05
2023-10-09T17:46:06.553Z,6.18
2023-10-09T17:48:33.641Z,9.83
2023-10-09T17:51:01.160Z,10.98
2023-10-09T17:53:28.291Z,13.50
2023-10-09T17:55:55.339Z,13.30
2023-10-09T17:58:22.877Z,17.52
2023-10-09T18:00:50.002Z,15.80
2023-10-09T18:03:17.156Z,16.55
2023-10-09T18:05:45.139Z,17.67
2023-10-09T18:08:12.457Z,17.00
2023-10-09T18:10:39.522Z,14.32
2023-10-09T18:13:06.829Z,15.13
2023-10-09T18:15:34.142Z,11.90
2023-10-09T18:18:02.318Z,14.13
2023-10-09T18:20:29.803Z,14.20
2023-10-09T18:22:57.872Z,11.10
2023-10-09T18:25:25.006Z,15.93
2023-10-09T18:27:52.266Z,15.40
2023-10-09T18:30:19.438Z,16.40
2023-10-09T18:32:46.622Z,11.13
2023-10-09T18:35:13.765Z,11.75
2023-10-09T18:37:41.198Z,9.57
2023-10-09T18:40:11.998Z,9.80
2023-10-09T18:42:39.334Z,7.70
2023-10-09T18:45:08.478Z,8.45
2023-10-09T18:47:36.621Z,6.50
2023-10-09T18:50:04.202Z,7.93
2023-10-09T18:52:31.355Z,8.20
2023-10-09T18:54:58.420Z,7.00
2023-10-09T18:57:25.579Z,6.88
2023-10-09T18:59:53.249Z,5.95
2023-10-09T19:02:20.339Z,5.60
2023-10-09T19:04:47.568Z,5.38
2023-10-09T19:07:14.678Z,5.78
2023-10-09T19:09:41.764Z,4.82
2023-10-09T19:12:08.867Z,5.35
2023-10-09T19:14:35.910Z,5.37
2023-10-09T19:17:03.130Z,5.03
2023-10-09T19:19:30.310Z,5.53
2023-10-09T19:21:57.445Z,5.18
2023-10-09T19:24:24.518Z,5.18
2023-10-09T19:26:51.874Z,4.73
2023-10-09T19:29:19.129Z,4.05
2023-10-09T19:31:46.358Z,5.18
2023-10-09T19:34:13.465Z,4.57
2023-10-09T19:36:40.537Z,4.82
2023-10-09T19:39:07.621Z,5.40
2023-10-09T19:41:34.763Z,4.75
2023-10-09T19:44:01.891Z,4.60
2023-10-09T19:46:29.374Z,5.20
2023-10-09T19:48:56.945Z,4.53
2023-10-09T19:51:23.976Z,4.90
2023-10-09T19:53:51.179Z,4.82
2023-10-09T19:56:18.313Z,5.03
2023-10-09T19:58:45.596Z,5.40
2023-10-09T20:01:13.527Z,5.65
2023-10-09T20:03:43.894Z,5.13
2023-10-09T20:06:11.277Z,4.85
2023-10-09T20:08:38.744Z,5.40
2023-10-09T20:11:09.334Z,4.53
2023-10-09T20:13:36.771Z,4.72
2023-10-09T20:16:03.988Z,4.30
2023-10-09T20:18:31.197Z,4.03
2023-10-09T20:21:01.069Z,4.53
2023-10-09T20:23:28.268Z,4.45
2023-10-09T20:26:05.424Z,4.78
2023-10-09T20:28:32.964Z,5.00
2023-10-09T20:31:00.038Z,4.35
2023-10-09T20:33:27.395Z,4.80
2023-10-09T20:35:54.494Z,4.55
2023-10-09T20:38:21.573Z,4.75
2023-10-09T20:40:48.802Z,5.23
2023-10-09T20:43:15.885Z,5.70
2023-10-09T20:45:42.956Z,6.05
2023-10-09T20:48:10.064Z,6.55
2023-10-09T20:50:41.732Z,4.72
2023-10-09T20:53:08.868Z,4.93
2023-10-09T20:55:36.379Z,5.38
2023-10-09T20:58:03.576Z,5.60
2023-10-09T21:00:30.612Z,4.95
2023-10-09T21:02:57.793Z,4.88
2023-10-09T21:05:25.105Z,4.90
2023-10-09T21:07:52.912Z,5.13
2023-10-09T21:10:21.186Z,4.82
2023-10-09T21:12:50.746Z,4.70
2023-10-09T21:15:18.982Z,4.78
2023-10-09T21:17:46.439Z,5.03
2023-10-09T21:20:15.057Z,4.93
2023-10-09T21:22:42.188Z,5.15
2023-10-09T21:25:09.748Z,4.65
2023-10-09T21:27:39.959Z,4.35
2023-10-09T21:30:07.646Z,4.97
2023-10-09T21:32:34.835Z,4.35
2023-10-09T21:35:02.061Z,5.20
2023-10-09T21:37:29.136Z,5.45
2023-10-09T21:39:56.421Z,4.47
2023-10-09T21:42:23.529Z,5.27
2023-10-09T21:44:50.598Z,4.70
2023-10-09T21:47:17.735Z,4.53
2023-10-09T21:49:44.943Z,5.38
2023-10-09T21:52:12.015Z,4.65
2023-10-09T21:54:39.417Z,4.53
2023-10-09T21:57:06.512Z,4.70
2023-10-09T21:59:33.633Z,5.07
2023-10-09T22:02:00.819Z,4.28
2023-10-09T22:04:27.998Z,3.90
2023-10-09T22:06:55.054Z,4.27
2023-10-09T22:09:22.143Z,4.53
2023-10-09T22:11:49.203Z,4.85
2023-10-09T22:14:16.300Z,4.22
2023-10-09T22:16:43.460Z,4.10
2023-10-09T22:19:14.257Z,4.50
2023-10-09T22:21:43.240Z,4.22
2023-10-09T22:24:10.340Z,4.43
2023-10-09T22:26:38.372Z,4.60
2023-10-09T22:29:06.838Z,4.25
2023-10-09T22:31:34.099Z,4.07
2023-10-09T22:34:01.174Z,4.38
2023-10-09T22:36:42.228Z,4.68
2023-10-09T22:39:15.843Z,4.18
2023-10-09T22:41:43.416Z,4.07
2023-10-09T22:44:10.484Z,4.10
2023-10-09T22:46:37.554Z,4.55
2023-10-09T22:49:04.735Z,4.47
2023-10-09T22:51:31.769Z,4.47
2023-10-09T22:53:58.816Z,5.15
2023-10-09T22:56:25.930Z,4.10
2023-10-09T22:58:53.117Z,4.55
2023-10-09T23:01:21.087Z,4.53
2023-10-09T23:03:48.767Z,4.32
2023-10-09T23:06:15.888Z,4.78
2023-10-09T23:08:42.987Z,5.10
2023-10-09T23:11:10.701Z,5.30
2023-10-09T23:13:42.537Z,4.75
2023-10-09T23:16:09.707Z,5.00
2023-10-09T23:18:38.171Z,4.78
2023-10-09T23:21:05.240Z,4.13
2023-10-09T23:23:32.300Z,5.43
2023-10-09T23:25:59.515Z,4.43
2023-10-09T23:28:26.638Z,3.88
2023-10-09T23:30:53.829Z,4.80
2023-10-09T23:33:21.133Z,3.80
2023-10-09T23:35:48.462Z,4.70
2023-10-09T23:38:16.754Z,3.63
2023-10-09T23:40:43.902Z,4.57
2023-10-09T23:43:14.633Z,4.40
2023-10-09T23:45:42.916Z,4.47
2023-10-09T23:48:14.395Z,4.43
2023-10-09T23:50:45.429Z,4.40
2023-10-09T23:53:12.917Z,4.55
2023-10-09T23:55:40.210Z,4.72
2023-10-09T23:58:07.241Z,4.80
